Time;durP1;ratioP1;P1;durP2;ratioP2;P2;SDS_P1;SDS_P2;PMS_P1;PMS_P2;Temp;Humidity;BMP_temperature;BMP_pressure;BME280_temperature;BME280_humidity;BME280_pressure;Samples;Min_cycle;Max_cycle;Signal;HPM_P1;HPM_P2
2021/09/11 00:01:23;;;;;;;;;;;;;;;16.62;72.22;100281.04;1711548;83;20144;-85
2021/09/11 00:03:49;;;;;;;;;;;;;;;16.57;72.34;100274.66;1704086;83;20581;-84
2021/09/11 00:06:17;;;;;;;;;;;;;;;16.46;72.29;100271.48;1692769;83;20119;-83
2021/09/11 00:08:42;;;;;;;;;;;;;;;16.47;72.39;100274.47;1705516;83;21272;-86
2021/09/11 00:11:09;;;;;;;;;;;;;;;16.38;72.69;100282.28;1710821;83;20262;-86
2021/09/11 00:13:37;;;;;;;;;;;;;;;16.38;72.45;100274.28;1712017;83;20104;-86
2021/09/11 00:16:05;;;;;;;;;;;;;;;16.37;72.87;100271.81;1705107;83;20158;-85
2021/09/11 00:18:30;;;;;;;;;;;;;;;16.36;72.68;100276.81;1702949;83;20130;-85
2021/09/11 00:20:57;;;;;;;;;;;;;;;16.36;72.30;100277.66;1712733;82;21080;-86
2021/09/11 00:23:23;;;;;;;;;;;;;;;16.39;72.16;100270.62;1703693;82;20244;-84
2021/09/11 00:25:53;;;;;;;;;;;;;;;16.40;72.66;100271.43;1705380;83;20431;-86
2021/09/11 00:28:19;;;;;;;;;;;;;;;16.41;72.45;100275.23;1708124;82;20189;-87
2021/09/11 00:30:46;;;;;;;;;;;;;;;16.41;72.41;100273.91;1710671;82;20152;-85
2021/09/11 00:33:14;;;;;;;;;;;;;;;16.44;72.05;100268.19;1693250;83;21135;-84
2021/09/11 00:35:40;;;;;;;;;;;;;;;16.44;72.33;100269.52;1715766;83;20213;-84
2021/09/11 00:38:07;;;;;;;;;;;;;;;16.41;72.11;100267.24;1703463;82;20193;-84
2021/09/11 00:40:33;;;;;;;;;;;;;;;16.41;72.44;100269.91;1709353;82;20168;-86
2021/09/11 00:42:58;;;;;;;;;;;;;;;16.40;72.29;100266.91;1689977;82;20244;-85
2021/09/11 00:45:24;;;;;;;;;;;;;;;16.39;72.45;100265.28;1717090;81;21258;-84
2021/09/11 00:47:50;;;;;;;;;;;;;;;16.39;72.19;100259.95;1694132;82;20125;-87
2021/09/11 00:50:16;;;;;;;;;;;;;;;16.41;72.00;100261.91;1706212;82;20271;-84
2021/09/11 00:52:46;;;;;;;;;;;;;;;16.41;72.34;100265.09;1717644;82;20295;-82
2021/09/11 00:55:13;;;;;;;;;;;;;;;16.42;72.04;100261.39;1714451;82;21120;-84
2021/09/11 00:57:42;;;;;;;;;;;;;;;16.38;72.68;100258.30;1718850;82;22012;-83
2021/09/11 01:00:09;;;;;;;;;;;;;;;16.39;72.09;100254.63;1718963;82;20124;-83
2021/09/11 01:02:35;;;;;;;;;;;;;;;16.37;72.31;100253.97;1716105;82;20710;-83
2021/09/11 01:05:00;;;;;;;;;;;;;;;16.36;72.24;100257.67;1719769;82;20176;-83
2021/09/11 01:07:26;;;;;;;;;;;;;;;16.34;72.59;100257.02;1716413;81;20138;-82
2021/09/11 01:09:53;;;;;;;;;;;;;;;16.31;72.62;100252.91;1718394;81;21199;-82
2021/09/11 01:12:21;;;;;;;;;;;;;;;16.31;72.49;100257.41;1718884;81;20204;-83
2021/09/11 01:14:49;;;;;;;;;;;;;;;16.29;72.56;100264.77;1712559;82;20502;-83
2021/09/11 01:17:23;;;;;;;;;;;;;;;16.18;73.56;100257.30;1717580;82;20479;-83
2021/09/11 01:19:49;;;;;;;;;;;;;;;16.03;74.72;100263.48;1715547;82;20198;-84
2021/09/11 01:22:16;;;;;;;;;;;;;;;15.92;75.35;100266.13;1719530;82;21300;-84
2021/09/11 01:24:56;;;;;;;;;;;;;;;15.73;76.24;100261.40;1716846;82;20210;-84
2021/09/11 01:27:21;;;;;;;;;;;;;;;15.66;76.67;100262.66;1724353;81;20542;-84
2021/09/11 01:29:57;;;;;;;;;;;;;;;15.54;77.59;100261.48;1717459;81;20168;-84
2021/09/11 01:32:23;;;;;;;;;;;;;;;15.44;78.05;100257.27;1716004;81;20192;-86
2021/09/11 01:34:52;;;;;;;;;;;;;;;15.39;78.21;100259.64;1721369;82;20978;-86
2021/09/11 01:37:19;;;;;;;;;;;;;;;15.32;78.55;100260.08;1714625;81;20149;-85
2021/09/11 01:39:49;;;;;;;;;;;;;;;15.27;78.99;100258.45;1711555;82;20151;-86
2021/09/11 01:42:21;;;;;;;;;;;;;;;15.19;79.14;100251.91;1710449;82;21008;-85
2021/09/11 01:44:50;;;;;;;;;;;;;;;15.15;79.12;100246.63;1705302;82;20174;-86
2021/09/11 01:47:18;;;;;;;;;;;;;;;15.11;79.30;100253.34;1705583;82;21187;-86
2021/09/11 01:49:45;;;;;;;;;;;;;;;15.09;79.23;100253.52;1704038;82;20212;-86
2021/09/11 01:52:12;;;;;;;;;;;;;;;15.11;78.97;100251.50;1703162;82;20154;-85
2021/09/11 01:54:40;;;;;;;;;;;;;;;15.15;79.11;100251.95;1707005;82;20202;-84
2021/09/11 01:57:09;;;;;;;;;;;;;;;15.17;79.05;100256.59;1710557;82;20512;-85
2021/09/11 01:59:39;;;;;;;;;;;;;;;15.13;78.85;100259.30;1703348;82;20601;-85
2021/09/11 02:02:06;;;;;;;;;;;;;;;15.18;78.47;100248.92;1704812;82;20603;-84
2021/09/11 02:04:32;;;;;;;;;;;;;;;15.20;78.31;100250.91;1706955;81;20188;-84
2021/09/11 02:07:02;;;;;;;;;;;;;;;15.14;78.89;100254.30;1697745;82;21307;-84
2021/09/11 02:09:28;;;;;;;;;;;;;;;15.14;78.62;100255.64;1700287;83;20264;-84
2021/09/11 02:11:55;;;;;;;;;;;;;;;15.12;79.06;100260.30;1705025;82;21062;-84
2021/09/11 02:14:25;;;;;;;;;;;;;;;15.15;78.38;100254.61;1705969;82;20174;-84
2021/09/11 02:16:51;;;;;;;;;;;;;;;15.15;78.52;100246.63;1706651;82;20499;-83
2021/09/11 02:19:18;;;;;;;;;;;;;;;15.16;78.41;100253.61;1705337;82;20163;-83
2021/09/11 02:21:44;;;;;;;;;;;;;;;15.16;78.20;100256.27;1690063;83;20132;-83
2021/09/11 02:24:11;;;;;;;;;;;;;;;15.15;78.58;100255.45;1680559;83;20753;-83
2021/09/11 02:26:37;;;;;;;;;;;;;;;15.12;78.61;100260.30;1706882;82;20152;-84
2021/09/11 02:29:04;;;;;;;;;;;;;;;15.11;78.43;100256.00;1709158;82;20146;-84
2021/09/11 02:31:31;;;;;;;;;;;;;;;15.09;78.37;100250.87;1706992;82;20182;-84
2021/09/11 02:34:00;;;;;;;;;;;;;;;15.08;78.79;100254.01;1710066;82;20219;-84
2021/09/11 02:36:27;;;;;;;;;;;;;;;15.11;78.40;100261.32;1705104;82;20580;-86
2021/09/11 02:38:54;;;;;;;;;;;;;;;15.08;78.49;100252.68;1706481;81;20153;-87
2021/09/11 02:41:23;;;;;;;;;;;;;;;15.04;78.76;100252.75;1706288;82;20161;-85
2021/09/11 02:43:53;;;;;;;;;;;;;;;14.99;79.18;100252.48;1685021;82;20177;-84
2021/09/11 02:46:20;;;;;;;;;;;;;;;14.93;79.99;100249.70;1679289;84;20188;-85
2021/09/11 02:48:47;;;;;;;;;;;;;;;14.81;80.62;100253.33;1679360;84;21066;-83
2021/09/11 02:51:15;;;;;;;;;;;;;;;14.79;80.73;100247.34;1684064;84;20132;-85
2021/09/11 02:53:42;;;;;;;;;;;;;;;14.70;81.24;100247.43;1649571;84;20197;-83
2021/09/11 02:56:09;;;;;;;;;;;;;;;14.65;81.69;100251.63;1682397;84;20174;-84
2021/09/11 02:58:37;;;;;;;;;;;;;;;14.57;82.07;100245.84;1680939;84;20239;-85
2021/09/11 03:01:02;;;;;;;;;;;;;;;14.55;82.36;100249.20;1681755;83;21109;-85
2021/09/11 03:03:30;;;;;;;;;;;;;;;14.56;82.46;100253.52;1679787;84;21546;-85
2021/09/11 03:05:57;;;;;;;;;;;;;;;14.56;82.32;100248.20;1676895;84;20157;-86
2021/09/11 03:08:23;;;;;;;;;;;;;;;14.49;82.54;100248.59;1678441;84;20192;-84
2021/09/11 03:10:54;;;;;;;;;;;;;;;14.46;82.75;100247.62;1678845;84;20781;-84
2021/09/11 03:13:19;;;;;;;;;;;;;;;14.48;82.67;100242.94;1679917;84;21925;-84
2021/09/11 03:15:45;;;;;;;;;;;;;;;14.53;81.94;100248.56;1679379;84;20191;-84
2021/09/11 03:18:12;;;;;;;;;;;;;;;14.57;81.71;100249.84;1630067;84;20216;-84
2021/09/11 03:20:39;;;;;;;;;;;;;;;14.58;81.80;100251.50;1675993;84;20219;-83
2021/09/11 03:23:08;;;;;;;;;;;;;;;14.50;82.30;100252.91;1679068;84;20236;-83
2021/09/11 03:25:35;;;;;;;;;;;;;;;14.46;82.16;100245.77;1680476;84;22043;-83
2021/09/11 03:28:02;;;;;;;;;;;;;;;14.47;82.40;100249.28;1680060;84;20172;-82
2021/09/11 03:30:28;;;;;;;;;;;;;;;14.50;82.11;100240.95;1680748;84;20185;-82
2021/09/11 03:32:55;;;;;;;;;;;;;;;14.42;82.45;100244.98;1680619;84;20609;-82
2021/09/11 03:35:21;;;;;;;;;;;;;;;14.39;82.58;100241.36;1679997;84;20223;-82
2021/09/11 03:37:48;;;;;;;;;;;;;;;14.43;82.09;100242.66;1677541;84;22671;-82
2021/09/11 03:40:15;;;;;;;;;;;;;;;14.44;81.98;100243.81;1679962;84;20165;-82
2021/09/11 03:42:43;;;;;;;;;;;;;;;14.41;82.31;100244.16;1683056;82;20169;-82
2021/09/11 03:45:09;;;;;;;;;;;;;;;14.36;82.70;100239.91;1706780;82;20206;-83
2021/09/11 03:47:36;;;;;;;;;;;;;;;14.34;82.81;100239.23;1707738;82;20183;-83
2021/09/11 03:50:03;;;;;;;;;;;;;;;14.35;82.84;100232.92;1702194;82;21335;-84
2021/09/11 03:52:32;;;;;;;;;;;;;;;14.37;82.57;100233.56;1708296;82;20182;-83
2021/09/11 03:54:59;;;;;;;;;;;;;;;14.41;82.34;100227.41;1679456;83;20178;-82
2021/09/11 03:57:26;;;;;;;;;;;;;;;14.38;82.37;100229.09;1698324;82;20123;-83
2021/09/11 03:59:51;;;;;;;;;;;;;;;14.38;82.20;100226.44;1707855;82;20858;-82
2021/09/11 04:02:19;;;;;;;;;;;;;;;14.39;82.12;100224.09;1689506;83;20732;-84
2021/09/11 04:04:48;;;;;;;;;;;;;;;14.35;82.59;100221.78;1703485;82;20540;-86
2021/09/11 04:07:13;;;;;;;;;;;;;;;14.35;82.29;100228.43;1700343;83;20657;-86
2021/09/11 04:09:41;;;;;;;;;;;;;;;14.32;82.86;100223.47;1702798;83;20106;-85
2021/09/11 04:12:07;;;;;;;;;;;;;;;14.32;82.92;100224.80;1701161;82;20195;-86
2021/09/11 04:14:33;;;;;;;;;;;;;;;14.30;83.35;100226.00;1699470;82;21090;-84
2021/09/11 04:17:02;;;;;;;;;;;;;;;14.23;83.71;100229.89;1703069;82;20143;-85
2021/09/11 04:19:31;;;;;;;;;;;;;;;14.24;83.75;100224.88;1700475;82;20193;-86
2021/09/11 04:22:00;;;;;;;;;;;;;;;14.23;84.04;100229.89;1698552;82;20175;-86
2021/09/11 04:24:26;;;;;;;;;;;;;;;14.22;84.10;100233.53;1706511;81;20236;-86
2021/09/11 04:26:53;;;;;;;;;;;;;;;14.19;84.38;100228.58;1710341;82;21111;-87
2021/09/11 04:29:22;;;;;;;;;;;;;;;14.23;84.29;100227.23;1709284;82;20112;-84
2021/09/11 04:31:49;;;;;;;;;;;;;;;14.20;84.33;100232.90;1703303;83;20157;-84
2021/09/11 04:34:15;;;;;;;;;;;;;;;14.18;84.54;100234.88;1707535;83;20155;-85
2021/09/11 04:36:42;;;;;;;;;;;;;;;14.20;84.61;100230.24;1710130;82;20168;-85
2021/09/11 04:39:07;;;;;;;;;;;;;;;14.21;84.31;100226.56;1684719;82;20741;-85
2021/09/11 04:41:37;;;;;;;;;;;;;;;14.27;84.22;100231.67;1693328;83;20171;-85
2021/09/11 04:44:03;;;;;;;;;;;;;;;14.27;84.21;100231.16;1713731;82;20152;-85
2021/09/11 04:46:31;;;;;;;;;;;;;;;14.33;83.95;100235.77;1706702;83;21153;-85
2021/09/11 04:48:56;;;;;;;;;;;;;;;14.38;83.68;100237.88;1712864;83;20422;-85
2021/09/11 04:51:24;;;;;;;;;;;;;;;14.40;83.64;100240.36;1707417;83;22399;-85
2021/09/11 04:53:52;;;;;;;;;;;;;;;14.42;83.43;100246.31;1707736;83;20180;-85
2021/09/11 04:56:19;;;;;;;;;;;;;;;14.41;83.59;100239.37;1712393;82;20319;-85
2021/09/11 04:58:47;;;;;;;;;;;;;;;14.40;83.56;100246.48;1709996;82;20193;-85
2021/09/11 05:01:15;;;;;;;;;;;;;;;14.43;83.55;100245.31;1704691;82;20159;-85
2021/09/11 05:03:40;;;;;;;;;;;;;;;14.48;83.33;100244.27;1699999;83;21181;-86
2021/09/11 05:06:08;;;;;;;;;;;;;;;14.47;83.25;100243.45;1709987;82;20305;-85
2021/09/11 05:08:36;;;;;;;;;;;;;;;14.48;83.38;100245.59;1702950;82;20118;-84
2021/09/11 05:11:07;;;;;;;;;;;;;;;14.48;83.51;100249.10;1704172;82;21065;-85
2021/09/11 05:13:34;;;;;;;;;;;;;;;14.52;83.24;100251.70;1704667;82;20240;-85
2021/09/11 05:16:01;;;;;;;;;;;;;;;14.57;83.07;100248.51;1709805;83;21164;-84
2021/09/11 05:18:29;;;;;;;;;;;;;;;14.63;82.92;100247.82;1709597;82;20171;-88
2021/09/11 05:20:55;;;;;;;;;;;;;;;14.62;82.94;100244.86;1704618;83;20231;-88
2021/09/11 05:23:22;;;;;;;;;;;;;;;14.65;83.08;100249.81;1702885;82;21017;-88
2021/09/11 05:25:47;;;;;;;;;;;;;;;14.69;83.01;100251.09;1702410;82;20135;-85
2021/09/11 05:28:17;;;;;;;;;;;;;;;14.69;82.91;100248.42;1705419;82;22386;-86
2021/09/11 05:30:44;;;;;;;;;;;;;;;14.73;83.36;100252.90;1700489;83;20483;-88
2021/09/11 05:33:10;;;;;;;;;;;;;;;14.82;83.39;100244.33;1705053;82;20120;-86
2021/09/11 05:35:37;;;;;;;;;;;;;;;14.92;82.99;100250.22;1711779;82;20143;-86
2021/09/11 05:38:03;;;;;;;;;;;;;;;14.99;82.39;100243.17;1707074;82;20261;-85
2021/09/11 05:40:29;;;;;;;;;;;;;;;15.03;82.73;100244.44;1701655;82;21089;-85
2021/09/11 05:43:00;;;;;;;;;;;;;;;15.05;82.28;100250.38;1700806;83;20148;-86
2021/09/11 05:45:25;;;;;;;;;;;;;;;15.13;82.37;100244.66;1709043;82;20485;-85
2021/09/11 05:47:53;;;;;;;;;;;;;;;15.18;82.16;100238.28;1708265;82;20124;-87
2021/09/11 05:50:18;;;;;;;;;;;;;;;15.21;81.87;100241.90;1712008;82;20226;-87
2021/09/11 05:52:47;;;;;;;;;;;;;;;15.31;81.90;100245.12;1688665;83;22008;-84
2021/09/11 05:55:15;;;;;;;;;;;;;;;15.43;81.87;100244.16;1708601;82;20180;-87
2021/09/11 05:57:42;;;;;;;;;;;;;;;15.52;81.45;100239.53;1704346;83;20187;-87
2021/09/11 06:00:09;;;;;;;;;;;;;;;15.56;81.07;100243.48;1712103;82;20556;-87
2021/09/11 06:02:35;;;;;;;;;;;;;;;15.57;80.71;100238.48;1705272;82;20364;-87
2021/09/11 06:05:02;;;;;;;;;;;;;;;15.70;80.58;100241.80;1681957;82;20769;-85
2021/09/11 06:07:27;;;;;;;;;;;;;;;15.82;80.05;100242.15;1704388;82;20198;-87
2021/09/11 06:09:53;;;;;;;;;;;;;;;15.88;79.95;100240.06;1706292;82;20879;-88
2021/09/11 06:12:19;;;;;;;;;;;;;;;15.97;79.49;100249.59;1708162;82;20189;-90
2021/09/11 06:14:46;;;;;;;;;;;;;;;16.03;79.28;100246.17;1707621;82;20353;-88
2021/09/11 06:17:12;;;;;;;;;;;;;;;16.02;79.21;100248.53;1708990;82;21154;-86
2021/09/11 06:19:39;;;;;;;;;;;;;;;16.04;79.23;100242.50;1709996;82;20118;-86
2021/09/11 06:22:09;;;;;;;;;;;;;;;16.09;79.12;100243.27;1707114;82;20151;-84
2021/09/11 06:24:35;;;;;;;;;;;;;;;16.15;79.44;100245.98;1706722;82;20129;-82
2021/09/11 06:27:01;;;;;;;;;;;;;;;16.21;79.28;100251.59;1707602;82;20256;-89
2021/09/11 06:29:28;;;;;;;;;;;;;;;16.26;79.14;100247.31;1708052;82;21170;-84
2021/09/11 06:31:59;;;;;;;;;;;;;;;16.32;79.05;100248.40;1705487;82;20139;-89
2021/09/11 06:34:25;;;;;;;;;;;;;;;16.36;78.94;100253.67;1688683;82;20225;-89
2021/09/11 06:36:50;;;;;;;;;;;;;;;16.44;79.01;100257.53;1708158;82;20193;-87
2021/09/11 06:39:17;;;;;;;;;;;;;;;16.54;78.69;100261.71;1710225;82;20460;-86
2021/09/11 06:41:44;;;;;;;;;;;;;;;16.59;78.40;100267.28;1684514;83;21278;-85
2021/09/11 06:44:15;;;;;;;;;;;;;;;16.65;78.35;100261.17;1705015;82;20230;-87
2021/09/11 06:46:42;;;;;;;;;;;;;;;16.72;78.03;100263.39;1708138;83;20203;-85
2021/09/11 06:49:09;;;;;;;;;;;;;;;16.81;77.92;100260.90;1707259;83;20218;-84
2021/09/11 06:51:36;;;;;;;;;;;;;;;16.86;77.00;100263.83;1686120;83;20181;-86
2021/09/11 06:54:03;;;;;;;;;;;;;;;16.94;77.27;100262.86;1684744;82;21954;-85
2021/09/11 06:56:30;;;;;;;;;;;;;;;17.04;76.91;100262.50;1705279;82;20240;-86
2021/09/11 06:59:01;;;;;;;;;;;;;;;17.11;76.52;100262.56;1690584;83;20641;-85
2021/09/11 07:01:27;;;;;;;;;;;;;;;17.15;76.49;100259.30;1702202;82;20178;-86
2021/09/11 07:03:57;;;;;;;;;;;;;;;17.25;76.19;100264.27;1706934;82;20130;-86
2021/09/11 07:06:24;;;;;;;;;;;;;;;17.31;75.62;100268.83;1705489;83;20216;-84
2021/09/11 07:08:51;;;;;;;;;;;;;;;17.38;75.50;100263.51;1682192;83;20191;-86
2021/09/11 07:11:17;;;;;;;;;;;;;;;17.47;75.26;100269.00;1704364;83;20137;-83
2021/09/11 07:13:44;;;;;;;;;;;;;;;17.57;75.40;100270.80;1712423;82;20472;-86
2021/09/11 07:16:14;;;;;;;;;;;;;;;17.71;75.40;100270.83;1704149;82;20200;-85
2021/09/11 07:18:41;;;;;;;;;;;;;;;17.79;75.02;100268.00;1708764;82;21188;-84
2021/09/11 07:21:08;;;;;;;;;;;;;;;17.90;74.80;100270.63;1703293;82;20184;-85
2021/09/11 07:23:36;;;;;;;;;;;;;;;17.99;74.39;100268.58;1717853;82;20244;-83
2021/09/11 07:26:03;;;;;;;;;;;;;;;18.07;73.92;100271.05;1708072;82;20269;-85
2021/09/11 07:28:28;;;;;;;;;;;;;;;18.17;73.78;100268.83;1709345;82;20150;-86
2021/09/11 07:30:58;;;;;;;;;;;;;;;18.32;73.56;100265.13;1710248;82;21280;-87
2021/09/11 07:33:25;;;;;;;;;;;;;;;18.43;72.87;100265.89;1693151;83;20192;-87
2021/09/11 07:35:51;;;;;;;;;;;;;;;18.51;72.40;100258.98;1710756;82;20211;-88
2021/09/11 07:38:23;;;;;;;;;;;;;;;18.62;72.03;100266.91;1707047;82;20166;-87
2021/09/11 07:40:50;;;;;;;;;;;;;;;18.71;71.74;100259.52;1702273;83;20200;-85
2021/09/11 07:43:23;;;;;;;;;;;;;;;18.78;68.54;100258.47;1703720;82;21145;-86
2021/09/11 07:45:48;;;;;;;;;;;;;;;18.89;69.39;100253.01;1703615;82;20234;-87
2021/09/11 07:48:16;;;;;;;;;;;;;;;18.99;69.63;100254.75;1712537;82;20157;-86
2021/09/11 07:50:42;;;;;;;;;;;;;;;19.09;69.67;100257.52;1707745;82;20201;-86
2021/09/11 07:53:09;;;;;;;;;;;;;;;19.19;69.66;100252.55;1704415;82;20157;-86
2021/09/11 07:55:34;;;;;;;;;;;;;;;19.29;68.59;100247.56;1706242;82;23183;-84
2021/09/11 07:58:00;;;;;;;;;;;;;;;19.40;68.48;100251.97;1680357;82;20149;-87
2021/09/11 08:00:29;;;;;;;;;;;;;;;19.52;68.96;100255.62;1682042;82;20250;-85
2021/09/11 08:02:58;;;;;;;;;;;;;;;19.62;68.24;100250.62;1710653;82;20134;-86
2021/09/11 08:05:26;;;;;;;;;;;;;;;19.71;66.90;100249.34;1702453;82;20527;-86
2021/09/11 08:07:55;;;;;;;;;;;;;;;19.82;67.56;100255.09;1707858;82;21109;-86
2021/09/11 08:10:21;;;;;;;;;;;;;;;19.89;66.18;100251.88;1705582;82;20185;-84
2021/09/11 08:12:47;;;;;;;;;;;;;;;20.00;65.72;100253.86;1705386;82;20300;-82
2021/09/11 08:15:15;;;;;;;;;;;;;;;20.08;65.68;100250.91;1707815;82;20091;-84
2021/09/11 08:17:42;;;;;;;;;;;;;;;20.18;65.17;100252.29;1710300;82;20226;-86
2021/09/11 08:20:09;;;;;;;;;;;;;;;20.26;63.78;100256.88;1684199;82;21035;-86
2021/09/11 08:22:35;;;;;;;;;;;;;;;20.32;63.77;100249.00;1706377;82;21298;-85
2021/09/11 08:25:00;;;;;;;;;;;;;;;20.43;64.01;100249.63;1705121;82;20157;-85
2021/09/11 08:27:29;;;;;;;;;;;;;;;20.56;63.73;100255.42;1705977;81;20275;-87
2021/09/11 08:29:55;;;;;;;;;;;;;;;20.64;63.14;100249.77;1713482;82;20122;-85
2021/09/11 08:32:22;;;;;;;;;;;;;;;20.74;63.00;100252.81;1705572;82;20479;-86
2021/09/11 08:34:52;;;;;;;;;;;;;;;20.86;62.27;100250.73;1706818;82;20137;-89
2021/09/11 08:37:23;;;;;;;;;;;;;;;20.99;62.23;100251.95;1707200;82;20128;-87
2021/09/11 08:39:52;;;;;;;;;;;;;;;21.11;60.96;100252.02;1706337;81;20208;-86
2021/09/11 08:42:20;;;;;;;;;;;;;;;21.23;60.56;100250.77;1686971;82;20184;-89
2021/09/11 08:44:46;;;;;;;;;;;;;;;21.33;60.22;100244.33;1705935;81;22535;-87
2021/09/11 08:47:12;;;;;;;;;;;;;;;21.46;59.15;100243.36;1690492;82;20288;-87
2021/09/11 08:49:37;;;;;;;;;;;;;;;21.48;58.87;100232.67;1709234;82;20478;-89
2021/09/11 08:52:07;;;;;;;;;;;;;;;21.61;58.95;100242.48;1703523;82;20486;-86
2021/09/11 08:54:32;;;;;;;;;;;;;;;21.67;59.10;100239.38;1711666;82;20499;-85
2021/09/11 08:57:00;;;;;;;;;;;;;;;21.73;58.63;100240.36;1681135;82;21378;-88
2021/09/11 08:59:26;;;;;;;;;;;;;;;21.78;58.39;100238.63;1709164;82;20214;-89
2021/09/11 09:02:04;;;;;;;;;;;;;;;21.85;58.04;100240.69;1709722;82;20225;-84
2021/09/11 09:04:48;;;;;;;;;;;;;;;21.94;58.33;100237.66;1712280;82;20209;-82
2021/09/11 09:07:41;;;;;;;;;;;;;;;22.05;57.93;100238.24;1708706;81;20658;-85
2021/09/11 09:10:12;;;;;;;;;;;;;;;22.10;57.86;100241.05;1705356;82;21187;-84
2021/09/11 09:12:40;;;;;;;;;;;;;;;22.16;57.11;100239.33;1706974;82;20212;-84
2021/09/11 09:15:12;;;;;;;;;;;;;;;22.21;55.75;100240.25;1704092;82;20205;-89
2021/09/11 09:17:48;;;;;;;;;;;;;;;22.28;55.19;100239.33;1703016;82;20249;-85
2021/09/11 09:20:26;;;;;;;;;;;;;;;22.38;54.96;100237.73;1707916;82;20234;-88
2021/09/11 09:23:07;;;;;;;;;;;;;;;22.49;55.41;100234.77;1707089;82;21125;-87
2021/09/11 09:25:34;;;;;;;;;;;;;;;22.57;54.30;100234.41;1705389;82;20192;-86
2021/09/11 09:28:05;;;;;;;;;;;;;;;22.64;53.95;100235.66;1684225;82;20153;-86
2021/09/11 09:30:40;;;;;;;;;;;;;;;22.71;54.31;100236.34;1706687;82;20135;-87
2021/09/11 09:33:08;;;;;;;;;;;;;;;22.85;55.26;100242.31;1701695;82;20151;-90
2021/09/11 09:35:37;;;;;;;;;;;;;;;22.93;55.38;100241.97;1703250;82;21061;-88
2021/09/11 09:38:08;;;;;;;;;;;;;;;22.97;53.77;100237.46;1710020;82;20242;-90
2021/09/11 09:40:39;;;;;;;;;;;;;;;23.01;53.66;100238.61;1708410;82;20497;-89
2021/09/11 09:43:04;;;;;;;;;;;;;;;23.07;51.77;100237.16;1706962;82;20226;-88
2021/09/11 09:45:31;;;;;;;;;;;;;;;23.15;50.23;100237.86;1706897;82;20201;-88
2021/09/11 09:48:01;;;;;;;;;;;;;;;23.21;51.14;100235.05;1705238;82;21094;-89
2021/09/11 09:50:31;;;;;;;;;;;;;;;23.26;51.22;100243.23;1704895;82;20158;-88
2021/09/11 09:52:57;;;;;;;;;;;;;;;23.36;51.97;100236.41;1707229;82;20162;-89
2021/09/11 09:55:23;;;;;;;;;;;;;;;23.39;52.21;100233.24;1707588;81;20483;-89
2021/09/11 09:57:51;;;;;;;;;;;;;;;23.53;52.52;100234.59;1707375;82;20282;-90
2021/09/11 10:00:16;;;;;;;;;;;;;;;23.58;52.27;100231.98;1708283;82;21093;-90
2021/09/11 10:02:42;;;;;;;;;;;;;;;23.64;51.86;100228.33;1707150;82;20327;-89
2021/09/11 10:05:10;;;;;;;;;;;;;;;23.69;51.84;100226.26;1706749;82;20149;-88
2021/09/11 10:07:35;;;;;;;;;;;;;;;23.78;51.38;100228.05;1705999;82;20191;-89
2021/09/11 10:10:01;;;;;;;;;;;;;;;23.81;50.64;100222.17;1704735;82;20232;-88
2021/09/11 10:12:33;;;;;;;;;;;;;;;23.78;48.48;100218.61;1707084;82;21148;-88
2021/09/11 10:15:33;;;;;;;;;;;;;;;23.81;48.62;100216.78;1703450;82;20138;-88
2021/09/11 10:18:03;;;;;;;;;;;;;;;23.90;47.44;100223.45;1705004;82;20167;-89
2021/09/11 10:20:31;;;;;;;;;;;;;;;23.86;47.92;100229.56;1706061;82;20127;-89
2021/09/11 10:23:07;;;;;;;;;;;;;;;23.92;47.59;100223.20;1670723;82;20185;-89
2021/09/11 10:25:45;;;;;;;;;;;;;;;23.97;48.23;100221.42;1704364;82;21314;-88
2021/09/11 10:28:24;;;;;;;;;;;;;;;24.07;47.90;100219.96;1705689;82;20159;-85
2021/09/11 10:31:08;;;;;;;;;;;;;;;24.18;48.40;100219.06;1709328;82;21037;-85
2021/09/11 10:33:51;;;;;;;;;;;;;;;24.31;48.18;100220.06;1682365;83;37718;-85
2021/09/11 10:36:23;;;;;;;;;;;;;;;24.36;46.59;100207.19;1709969;82;20171;-85
2021/09/11 10:38:53;;;;;;;;;;;;;;;24.44;46.56;100205.95;1707167;82;20185;-88
2021/09/11 10:41:20;;;;;;;;;;;;;;;24.46;46.23;100206.55;1713694;81;20231;-83
2021/09/11 10:44:05;;;;;;;;;;;;;;;24.50;45.86;100213.06;1682647;82;20234;-88
2021/09/11 10:46:53;;;;;;;;;;;;;;;24.55;45.00;100211.27;1704803;82;20212;-88
2021/09/11 10:49:32;;;;;;;;;;;;;;;24.60;45.09;100209.20;1707133;82;20191;-86
2021/09/11 10:52:04;;;;;;;;;;;;;;;24.72;45.86;100202.36;1704753;82;21088;-86
2021/09/11 10:54:38;;;;;;;;;;;;;;;24.83;45.96;100204.67;1708255;82;20332;-90
2021/09/11 10:57:15;;;;;;;;;;;;;;;24.93;45.92;100204.79;1708472;82;20125;-87
2021/09/11 10:59:46;;;;;;;;;;;;;;;24.95;46.20;100198.59;1707854;82;20161;-85
2021/09/11 11:02:31;;;;;;;;;;;;;;;25.06;47.01;100201.73;1708898;81;20582;-86
2021/09/11 11:05:06;;;;;;;;;;;;;;;25.03;45.57;100203.58;1703384;82;21077;-87
2021/09/11 11:07:32;;;;;;;;;;;;;;;25.13;45.94;100203.42;1699867;82;20602;-87
2021/09/11 11:10:04;;;;;;;;;;;;;;;25.22;46.61;100200.56;1711600;81;20237;-86
2021/09/11 11:12:35;;;;;;;;;;;;;;;25.23;45.77;100185.96;1709230;82;20157;-87
2021/09/11 11:15:06;;;;;;;;;;;;;;;25.25;45.28;100191.41;1708888;82;21302;-87
2021/09/11 11:17:37;;;;;;;;;;;;;;;25.25;45.07;100191.95;1708286;82;21136;-84
2021/09/11 11:20:04;;;;;;;;;;;;;;;25.26;45.42;100189.00;1703324;82;20185;-91
2021/09/11 11:22:35;;;;;;;;;;;;;;;25.35;46.20;100192.08;1702847;82;20241;-89
2021/09/11 11:25:03;;;;;;;;;;;;;;;25.41;45.85;100185.66;1703821;82;20131;-88
2021/09/11 11:27:28;;;;;;;;;;;;;;;25.50;46.05;100182.52;1707014;82;20206;-89
2021/09/11 11:29:57;;;;;;;;;;;;;;;25.53;45.56;100176.61;1704566;83;21057;-95
2021/09/11 11:32:27;;;;;;;;;;;;;;;25.57;45.67;100170.95;1684896;82;20518;-88
2021/09/11 11:35:00;;;;;;;;;;;;;;;25.64;46.17;100174.27;1706168;82;20169;-89
2021/09/11 11:37:31;;;;;;;;;;;;;;;25.69;45.29;100170.25;1706442;82;20175;-90
2021/09/11 11:40:00;;;;;;;;;;;;;;;25.71;45.05;100171.35;1704088;82;20179;-85
2021/09/11 11:42:31;;;;;;;;;;;;;;;25.82;45.30;100161.44;1701849;82;21163;-92
2021/09/11 11:44:55;;;;;;;;;;;;;;;25.93;45.56;100161.80;1711761;82;20116;-86
2021/09/11 11:47:39;;;;;;;;;;;;;;;25.90;45.14;100163.16;1713652;82;20199;-87
2021/09/11 11:50:11;;;;;;;;;;;;;;;25.93;44.59;100159.09;1717052;82;20530;-90
2021/09/11 11:52:39;;;;;;;;;;;;;;;25.92;44.38;100165.59;1711545;82;20163;-90
2021/09/11 11:55:09;;;;;;;;;;;;;;;26.02;45.27;100167.59;1720447;82;20134;-92
2021/09/11 11:57:35;;;;;;;;;;;;;;;26.05;44.94;100162.47;1721689;82;20184;-89
2021/09/11 12:00:07;;;;;;;;;;;;;;;26.10;44.97;100162.53;1717714;82;20197;-90
2021/09/11 12:02:39;;;;;;;;;;;;;;;26.19;45.93;100163.39;1720861;81;20180;-85
2021/09/11 12:05:25;;;;;;;;;;;;;;;26.26;45.49;100157.23;1725222;82;20207;-86
2021/09/11 12:07:57;;;;;;;;;;;;;;;26.29;45.54;100154.00;1718923;82;22174;-82
2021/09/11 12:10:27;;;;;;;;;;;;;;;26.37;45.54;100161.63;1714771;82;20129;-82
2021/09/11 12:13:07;;;;;;;;;;;;;;;26.41;45.74;100157.30;1695027;83;20182;-84
2021/09/11 12:15:35;;;;;;;;;;;;;;;26.47;45.52;100153.55;1717164;82;20184;-84
2021/09/11 12:18:14;;;;;;;;;;;;;;;26.51;44.51;100149.25;1713438;82;20181;-85
2021/09/11 12:20:44;;;;;;;;;;;;;;;26.58;44.22;100152.26;1708453;82;21344;-86
2021/09/11 12:23:20;;;;;;;;;;;;;;;26.64;43.94;100147.14;1716557;81;20292;-87
2021/09/11 12:26:05;;;;;;;;;;;;;;;26.69;43.18;100149.90;1718901;82;20197;-91
2021/09/11 12:28:48;;;;;;;;;;;;;;;26.78;43.61;100145.61;1719963;82;20146;-85
2021/09/11 12:31:29;;;;;;;;;;;;;;;26.87;43.36;100145.37;1720040;82;20213;-84
2021/09/11 12:34:19;;;;;;;;;;;;;;;26.95;42.74;100146.77;1718326;82;21125;-92
2021/09/11 12:36:44;;;;;;;;;;;;;;;26.92;42.26;100141.07;1718159;81;20505;-84
2021/09/11 12:39:26;;;;;;;;;;;;;;;27.07;43.67;100134.34;1717783;81;20132;-84
2021/09/11 12:41:54;;;;;;;;;;;;;;;27.17;42.49;100139.78;1719009;82;20154;-84
2021/09/11 12:44:21;;;;;;;;;;;;;;;27.22;41.81;100142.52;1721515;82;20178;-92